Time;durP1;ratioP1;P1;durP2;ratioP2;P2;SDS_P1;SDS_P2;PMS_P1;PMS_P2;Temp;Humidity;BMP_temperature;BMP_pressure;BME280_temperature;BME280_humidity;BME280_pressure;Samples;Min_cycle;Max_cycle;Signal;HPM_P1;HPM_P2
2021/12/26 00:00:10;;;;;;;10.10;8.10;;;;;;;;;;5053239;28;20321;-83
2021/12/26 00:02:37;;;;;;;11.80;8.53;;;;;;;;;;5052796;28;20740;-83
2021/12/26 00:05:06;;;;;;;10.43;7.70;;;;;;;;;;5049141;28;20245;-84
2021/12/26 00:07:33;;;;;;;9.40;7.60;;;;;;;;;;5046469;28;20297;-84
2021/12/26 00:10:00;;;;;;;12.90;8.03;;;;;;;;;;5044404;28;20234;-83
2021/12/26 00:12:28;;;;;;;10.30;7.80;;;;;;;;;;5044911;28;20205;-84
2021/12/26 00:14:55;;;;;;;12.30;8.20;;;;;;;;;;5041398;28;20241;-84
2021/12/26 00:17:22;;;;;;;9.90;7.97;;;;;;;;;;5035764;28;21453;-83
2021/12/26 00:19:49;;;;;;;10.93;8.20;;;;;;;;;;5040015;28;20784;-83
2021/12/26 00:22:18;;;;;;;10.03;7.67;;;;;;;;;;5038575;28;20206;-83
2021/12/26 00:24:46;;;;;;;12.00;8.17;;;;;;;;;;5052518;28;20237;-83
2021/12/26 00:27:13;;;;;;;9.53;7.93;;;;;;;;;;5053427;28;20297;-83
2021/12/26 00:29:40;;;;;;;10.60;7.83;;;;;;;;;;5048571;28;20237;-84
2021/12/26 00:32:07;;;;;;;10.47;7.80;;;;;;;;;;5053282;28;20210;-83
2021/12/26 00:34:35;;;;;;;8.90;7.87;;;;;;;;;;5052359;28;20264;-83
2021/12/26 00:37:02;;;;;;;10.20;7.97;;;;;;;;;;5053357;28;20239;-83
2021/12/26 00:39:30;;;;;;;12.10;8.30;;;;;;;;;;5052493;28;20699;-83
2021/12/26 00:41:58;;;;;;;9.43;8.50;;;;;;;;;;5052832;28;20678;-83
2021/12/26 00:44:25;;;;;;;10.13;8.47;;;;;;;;;;5052050;28;20672;-83
2021/12/26 00:46:53;;;;;;;12.37;8.60;;;;;;;;;;5059605;28;20217;-83
2021/12/26 00:49:20;;;;;;;11.37;9.07;;;;;;;;;;5054184;28;20721;-83
2021/12/26 00:51:48;;;;;;;10.80;8.83;;;;;;;;;;5053810;28;20210;-83
2021/12/26 00:54:15;;;;;;;10.57;8.67;;;;;;;;;;5053061;28;20667;-83
2021/12/26 00:56:43;;;;;;;11.97;8.70;;;;;;;;;;5053687;28;20212;-83
2021/12/26 00:59:10;;;;;;;10.00;8.60;;;;;;;;;;5052757;28;20238;-83
2021/12/26 01:01:38;;;;;;;14.50;9.20;;;;;;;;;;5052781;28;20568;-83
2021/12/26 01:04:05;;;;;;;10.30;8.03;;;;;;;;;;5052305;28;20244;-82
2021/12/26 01:06:32;;;;;;;14.27;9.57;;;;;;;;;;5052885;28;20210;-83
2021/12/26 01:08:59;;;;;;;11.53;8.83;;;;;;;;;;5051290;28;20253;-82
2021/12/26 01:11:33;;;;;;;13.47;9.30;;;;;;;;;;5052544;28;20280;-83
2021/12/26 01:14:04;;;;;;;12.73;9.13;;;;;;;;;;5052107;28;20272;-83
2021/12/26 01:16:31;;;;;;;12.90;8.70;;;;;;;;;;5052573;28;20646;-84
2021/12/26 01:19:05;;;;;;;12.93;8.87;;;;;;;;;;5052033;28;20597;-83
2021/12/26 01:21:32;;;;;;;11.23;8.30;;;;;;;;;;5052515;28;20591;-83
2021/12/26 01:24:00;;;;;;;10.33;8.50;;;;;;;;;;5051567;28;20237;-83
2021/12/26 01:26:28;;;;;;;11.67;9.33;;;;;;;;;;5052530;28;20206;-83
2021/12/26 01:28:55;;;;;;;11.53;8.40;;;;;;;;;;5052087;28;20244;-83
2021/12/26 01:31:24;;;;;;;12.73;8.43;;;;;;;;;;5051476;28;20213;-83
2021/12/26 01:33:55;;;;;;;13.20;9.40;;;;;;;;;;5051908;28;20241;-83
2021/12/26 01:36:22;;;;;;;12.27;8.30;;;;;;;;;;5052537;28;20190;-83
2021/12/26 01:38:50;;;;;;;10.63;8.60;;;;;;;;;;5052060;28;20637;-83
2021/12/26 01:41:17;;;;;;;13.70;8.73;;;;;;;;;;5052204;28;20213;-83
2021/12/26 01:43:46;;;;;;;10.57;9.00;;;;;;;;;;5051820;28;20241;-83
2021/12/26 01:46:13;;;;;;;12.57;8.67;;;;;;;;;;5052390;28;20202;-83
2021/12/26 01:48:42;;;;;;;12.23;9.13;;;;;;;;;;5052000;28;20252;-83
2021/12/26 01:51:09;;;;;;;13.77;10.03;;;;;;;;;;5052372;28;20209;-83
2021/12/26 01:53:38;;;;;;;12.83;9.20;;;;;;;;;;5051647;28;20246;-83
2021/12/26 01:56:06;;;;;;;14.03;9.07;;;;;;;;;;5052396;28;20217;-83
2021/12/26 01:58:35;;;;;;;11.77;9.33;;;;;;;;;;5052496;28;20241;-83
2021/12/26 02:01:03;;;;;;;11.07;9.00;;;;;;;;;;5052597;28;20202;-83
2021/12/26 02:03:30;;;;;;;12.47;9.47;;;;;;;;;;5060449;28;20248;-83
2021/12/26 02:05:58;;;;;;;12.23;8.73;;;;;;;;;;5051434;28;20206;-83
2021/12/26 02:08:26;;;;;;;11.93;9.03;;;;;;;;;;5052405;28;20240;-83
2021/12/26 02:10:53;;;;;;;10.77;8.87;;;;;;;;;;5053863;28;20221;-83
2021/12/26 02:13:20;;;;;;;11.40;8.87;;;;;;;;;;5051917;28;20226;-83
2021/12/26 02:15:47;;;;;;;10.80;9.07;;;;;;;;;;5067777;28;20202;-83
2021/12/26 02:18:14;;;;;;;11.80;8.20;;;;;;;;;;5067596;28;20206;-83
2021/12/26 02:20:57;;;;;;;12.67;9.50;;;;;;;;;;5068032;28;20222;-83
2021/12/26 02:23:29;;;;;;;11.37;8.40;;;;;;;;;;5063946;28;20234;-83
2021/12/26 02:28:42;;;;;;;11.43;8.77;;;;;;;;;;5052153;28;20298;-83
2021/12/26 02:31:09;;;;;;;13.67;9.77;;;;;;;;;;5052577;28;20711;-83
2021/12/26 02:33:37;;;;;;;12.27;9.53;;;;;;;;;;5051576;28;20264;-83
2021/12/26 02:36:07;;;;;;;11.47;9.20;;;;;;;;;;5032113;28;20594;-83
2021/12/26 02:38:34;;;;;;;14.80;9.37;;;;;;;;;;5047623;28;20230;-83
2021/12/26 02:41:02;;;;;;;13.17;9.17;;;;;;;;;;5052232;28;20226;-83
2021/12/26 02:43:30;;;;;;;12.13;9.43;;;;;;;;;;5054746;28;20696;-83
2021/12/26 02:45:57;;;;;;;14.57;10.33;;;;;;;;;;5055359;28;20234;-83
2021/12/26 02:48:24;;;;;;;12.03;9.50;;;;;;;;;;5055456;28;20233;-83
2021/12/26 02:50:56;;;;;;;13.80;9.07;;;;;;;;;;5055490;28;20198;-83
2021/12/26 02:53:24;;;;;;;11.73;9.70;;;;;;;;;;5054486;28;20243;-83
2021/12/26 02:55:51;;;;;;;15.43;10.80;;;;;;;;;;5055302;28;20305;-85
2021/12/26 02:58:19;;;;;;;12.70;9.40;;;;;;;;;;5054574;28;20205;-83
2021/12/26 03:00:47;;;;;;;11.97;9.17;;;;;;;;;;5055419;28;20232;-83
2021/12/26 03:03:15;;;;;;;14.30;10.33;;;;;;;;;;5054738;28;20235;-82
2021/12/26 03:05:43;;;;;;;13.87;10.37;;;;;;;;;;5055372;28;20730;-83
2021/12/26 03:08:12;;;;;;;18.20;10.70;;;;;;;;;;5055169;28;20212;-83
2021/12/26 03:10:40;;;;;;;14.90;9.40;;;;;;;;;;5055343;28;20206;-83
2021/12/26 03:13:09;;;;;;;13.13;10.53;;;;;;;;;;5054405;28;20226;-83
2021/12/26 03:15:37;;;;;;;14.90;10.93;;;;;;;;;;5054732;28;20213;-83
2021/12/26 03:18:04;;;;;;;13.23;9.50;;;;;;;;;;5054199;28;20204;-83
2021/12/26 03:20:32;;;;;;;15.07;10.80;;;;;;;;;;5054758;28;20230;-83
2021/12/26 03:23:00;;;;;;;16.27;11.23;;;;;;;;;;5054030;28;20230;-83
2021/12/26 03:25:29;;;;;;;14.20;10.37;;;;;;;;;;5054569;28;20202;-83
2021/12/26 03:27:57;;;;;;;15.17;10.90;;;;;;;;;;5055011;28;20216;-83
2021/12/26 03:30:26;;;;;;;15.60;11.43;;;;;;;;;;5054395;28;20225;-83
2021/12/26 03:32:53;;;;;;;17.93;11.53;;;;;;;;;;5054191;28;20733;-82
2021/12/26 03:35:21;;;;;;;14.73;9.93;;;;;;;;;;5053952;28;20233;-83
2021/12/26 03:37:48;;;;;;;16.97;10.87;;;;;;;;;;5054347;28;20210;-83
2021/12/26 03:40:15;;;;;;;14.00;10.63;;;;;;;;;;5053597;28;20244;-83
2021/12/26 03:42:42;;;;;;;16.53;11.30;;;;;;;;;;5054097;28;20226;-83
2021/12/26 03:45:11;;;;;;;16.27;10.60;;;;;;;;;;5053703;28;20244;-83
2021/12/26 03:47:39;;;;;;;15.47;11.27;;;;;;;;;;5055512;28;20214;-83
2021/12/26 03:50:07;;;;;;;15.60;11.20;;;;;;;;;;5053928;28;20238;-83
2021/12/26 03:52:34;;;;;;;16.57;10.90;;;;;;;;;;5053458;28;20218;-83
2021/12/26 03:55:01;;;;;;;13.20;10.03;;;;;;;;;;5052564;28;20257;-83
2021/12/26 03:57:28;;;;;;;15.93;10.23;;;;;;;;;;5053826;28;20555;-83
2021/12/26 03:59:55;;;;;;;15.53;11.40;;;;;;;;;;5053454;28;20248;-84
2021/12/26 04:02:24;;;;;;;18.13;10.77;;;;;;;;;;5053719;28;20186;-83
2021/12/26 04:04:51;;;;;;;16.80;10.97;;;;;;;;;;5053173;28;20237;-83
2021/12/26 04:07:18;;;;;;;16.20;11.97;;;;;;;;;;5053678;28;20213;-84
2021/12/26 04:09:45;;;;;;;15.87;10.73;;;;;;;;;;5053104;28;20230;-83
2021/12/26 04:12:12;;;;;;;13.90;10.00;;;;;;;;;;5053666;28;20206;-83
2021/12/26 04:14:39;;;;;;;13.70;10.43;;;;;;;;;;5053031;28;20240;-83
2021/12/26 04:17:06;;;;;;;17.93;10.70;;;;;;;;;;5053738;28;20209;-82
2021/12/26 04:19:35;;;;;;;15.33;10.77;;;;;;;;;;5064643;23;20226;-78
2021/12/26 04:22:02;;;;;;;15.40;11.40;;;;;;;;;;5037407;28;20198;-78
2021/12/26 04:24:30;;;;;;;17.13;11.20;;;;;;;;;;5037526;28;20245;-78
2021/12/26 04:26:57;;;;;;;14.93;10.47;;;;;;;;;;5037967;28;20289;-78
2021/12/26 04:29:25;;;;;;;16.30;11.07;;;;;;;;;;5037487;28;20376;-79
2021/12/26 04:31:52;;;;;;;16.90;11.20;;;;;;;;;;5035050;28;22044;-79
2021/12/26 04:34:19;;;;;;;16.10;11.37;;;;;;;;;;5036756;28;20242;-78
2021/12/26 04:36:47;;;;;;;14.50;10.67;;;;;;;;;;5039405;28;20666;-79
2021/12/26 04:39:14;;;;;;;13.57;10.50;;;;;;;;;;5036535;28;20242;-78
2021/12/26 04:41:45;;;;;;;15.63;10.30;;;;;;;;;;5036140;28;20226;-78
2021/12/26 04:44:12;;;;;;;15.20;10.83;;;;;;;;;;5035766;28;20254;-78
2021/12/26 04:46:39;;;;;;;18.43;10.37;;;;;;;;;;5036387;28;20222;-78
2021/12/26 04:49:06;;;;;;;15.57;10.53;;;;;;;;;;5036341;28;20241;-78
2021/12/26 04:51:33;;;;;;;15.23;9.93;;;;;;;;;;5036642;28;20206;-78
2021/12/26 04:54:02;;;;;;;15.17;10.93;;;;;;;;;;5036459;28;20241;-78
2021/12/26 04:56:29;;;;;;;15.60;10.20;;;;;;;;;;5036794;28;20214;-78
2021/12/26 04:58:56;;;;;;;16.37;10.60;;;;;;;;;;5036661;28;20799;-78
2021/12/26 05:01:23;;;;;;;15.63;10.70;;;;;;;;;;5036878;28;20226;-78
2021/12/26 05:03:50;;;;;;;13.97;9.60;;;;;;;;;;5035588;28;20241;-78
2021/12/26 05:06:17;;;;;;;15.10;11.13;;;;;;;;;;5036116;28;20623;-78
2021/12/26 05:08:44;;;;;;;14.93;10.07;;;;;;;;;;5035613;28;20634;-78
2021/12/26 05:11:13;;;;;;;14.60;10.37;;;;;;;;;;5035812;28;20253;-78
2021/12/26 05:13:40;;;;;;;14.80;10.37;;;;;;;;;;5035773;28;20265;-79
2021/12/26 05:16:07;;;;;;;16.23;11.20;;;;;;;;;;5036918;28;20206;-78
2021/12/26 05:18:34;;;;;;;15.63;11.07;;;;;;;;;;5036098;28;20245;-77
2021/12/26 05:21:01;;;;;;;15.43;11.03;;;;;;;;;;5036836;28;20230;-78
2021/12/26 05:23:29;;;;;;;15.47;11.13;;;;;;;;;;5036067;28;20238;-78
2021/12/26 05:25:56;;;;;;;14.13;10.53;;;;;;;;;;5037021;28;20211;-78
2021/12/26 05:28:24;;;;;;;15.77;10.10;;;;;;;;;;5036918;28;20234;-78
2021/12/26 05:30:51;;;;;;;15.90;10.97;;;;;;;;;;5035938;28;20655;-78
2021/12/26 05:33:18;;;;;;;15.90;10.87;;;;;;;;;;5035289;28;21530;-78
2021/12/26 05:35:45;;;;;;;15.57;10.63;;;;;;;;;;5036298;28;20210;-78
2021/12/26 05:38:12;;;;;;;16.20;10.67;;;;;;;;;;5035608;28;20821;-78
2021/12/26 05:40:39;;;;;;;15.23;10.97;;;;;;;;;;5035621;28;20227;-78
2021/12/26 05:43:06;;;;;;;17.53;11.13;;;;;;;;;;5035702;28;20210;-78
2021/12/26 05:45:35;;;;;;;15.37;10.60;;;;;;;;;;5035941;28;20210;-78
2021/12/26 05:48:02;;;;;;;17.30;10.53;;;;;;;;;;5035876;28;20218;-78
2021/12/26 05:50:29;;;;;;;15.43;10.77;;;;;;;;;;5036603;28;20206;-78
2021/12/26 05:52:56;;;;;;;14.67;10.20;;;;;;;;;;5036392;28;20213;-78
2021/12/26 05:55:23;;;;;;;16.40;10.80;;;;;;;;;;5035670;28;20225;-78
2021/12/26 05:57:50;;;;;;;13.63;10.57;;;;;;;;;;5036623;28;20557;-78
2021/12/26 06:00:18;;;;;;;12.93;9.83;;;;;;;;;;5035513;28;20234;-78
2021/12/26 06:02:49;;;;;;;15.90;10.87;;;;;;;;;;5035794;28;20214;-78
2021/12/26 06:05:16;;;;;;;14.07;10.40;;;;;;;;;;5036045;28;20317;-79
2021/12/26 06:07:43;;;;;;;16.57;10.77;;;;;;;;;;5035725;28;20232;-78
2021/12/26 06:10:10;;;;;;;18.47;10.50;;;;;;;;;;5035994;28;20312;-78
2021/12/26 06:12:38;;;;;;;15.03;10.40;;;;;;;;;;5036619;28;20210;-78
2021/12/26 06:15:05;;;;;;;14.47;10.63;;;;;;;;;;5035039;28;20233;-78
2021/12/26 06:17:32;;;;;;;16.10;10.47;;;;;;;;;;5038118;28;20210;-78
2021/12/26 06:20:00;;;;;;;14.43;10.40;;;;;;;;;;5039547;28;20237;-78
2021/12/26 06:22:27;;;;;;;13.83;9.70;;;;;;;;;;5039803;28;20317;-78
2021/12/26 06:24:54;;;;;;;14.33;10.33;;;;;;;;;;5038786;28;20238;-78
2021/12/26 06:27:22;;;;;;;15.20;11.37;;;;;;;;;;5039523;28;20207;-78
2021/12/26 06:29:49;;;;;;;19.00;10.73;;;;;;;;;;5038294;28;20237;-78
2021/12/26 06:32:16;;;;;;;14.40;10.87;;;;;;;;;;5039344;28;20737;-78
2021/12/26 06:34:43;;;;;;;15.80;10.80;;;;;;;;;;5039287;28;20295;-78
2021/12/26 06:37:11;;;;;;;15.40;11.07;;;;;;;;;;5039445;28;20271;-78
2021/12/26 06:39:39;;;;;;;16.00;11.50;;;;;;;;;;5038932;28;20246;-78
2021/12/26 06:42:06;;;;;;;16.70;11.40;;;;;;;;;;5039702;28;20248;-78
2021/12/26 06:44:33;;;;;;;17.03;11.40;;;;;;;;;;5038788;28;20238;-78
2021/12/26 06:47:01;;;;;;;16.33;10.50;;;;;;;;;;5039764;28;20210;-79
2021/12/26 06:49:28;;;;;;;14.17;10.10;;;;;;;;;;5038067;28;20246;-79
2021/12/26 06:51:55;;;;;;;17.37;10.83;;;;;;;;;;5038621;28;20350;-78
2021/12/26 06:54:24;;;;;;;15.53;10.27;;;;;;;;;;5038605;28;20249;-78
2021/12/26 06:56:51;;;;;;;16.00;9.93;;;;;;;;;;5044760;28;20213;-78
2021/12/26 06:59:18;;;;;;;17.00;10.30;;;;;;;;;;5040256;28;20238;-78
2021/12/26 07:01:48;;;;;;;14.43;9.93;;;;;;;;;;5038617;28;20588;-78
2021/12/26 07:04:15;;;;;;;17.40;10.87;;;;;;;;;;5038621;28;20238;-79
2021/12/26 07:06:42;;;;;;;18.13;11.47;;;;;;;;;;5041764;28;20573;-80
2021/12/26 07:09:09;;;;;;;14.83;11.03;;;;;;;;;;5040803;28;20238;-79
2021/12/26 07:11:38;;;;;;;15.83;11.23;;;;;;;;;;5040752;28;20206;-81
2021/12/26 07:14:05;;;;;;;14.53;9.97;;;;;;;;;;5041598;28;20234;-81
2021/12/26 07:16:32;;;;;;;16.23;11.00;;;;;;;;;;5041776;28;20220;-81
2021/12/26 07:18:59;;;;;;;14.93;11.37;;;;;;;;;;5038758;28;20369;-81
2021/12/26 07:21:27;;;;;;;16.43;11.77;;;;;;;;;;5039903;28;20219;-81
2021/12/26 07:23:54;;;;;;;13.60;9.83;;;;;;;;;;5039691;28;20223;-80
2021/12/26 07:26:23;;;;;;;14.30;10.10;;;;;;;;;;5032853;28;20199;-82
2021/12/26 07:28:53;;;;;;;16.97;11.37;;;;;;;;;;5022932;28;20235;-81
2021/12/26 07:31:20;;;;;;;15.03;10.70;;;;;;;;;;5031160;28;20565;-82
2021/12/26 07:33:47;;;;;;;14.20;10.43;;;;;;;;;;5028083;28;20227;-82
2021/12/26 07:36:15;;;;;;;16.03;11.03;;;;;;;;;;5023716;28;20214;-81
2021/12/26 07:38:42;;;;;;;22.03;11.00;;;;;;;;;;5028118;28;20245;-82
2021/12/26 07:41:09;;;;;;;14.40;10.43;;;;;;;;;;5029287;28;20301;-82
2021/12/26 07:43:36;;;;;;;15.30;11.07;;;;;;;;;;5037640;28;20227;-83
2021/12/26 07:46:05;;;;;;;14.73;9.87;;;;;;;;;;5029605;28;20208;-81
2021/12/26 07:48:32;;;;;;;16.17;10.67;;;;;;;;;;5020684;28;20239;-81
2021/12/26 07:50:59;;;;;;;15.43;10.47;;;;;;;;;;5030857;28;20199;-80
2021/12/26 07:53:26;;;;;;;13.73;9.37;;;;;;;;;;5039747;28;20234;-82
2021/12/26 07:55:53;;;;;;;15.77;10.87;;;;;;;;;;5033533;28;20202;-80
2021/12/26 07:58:20;;;;;;;15.53;10.33;;;;;;;;;;5037939;28;20260;-81
2021/12/26 08:00:47;;;;;;;17.00;11.13;;;;;;;;;;5040890;28;20238;-80
2021/12/26 08:03:15;;;;;;;16.53;10.73;;;;;;;;;;5036745;28;20211;-81
2021/12/26 08:05:43;;;;;;;17.53;10.97;;;;;;;;;;5028209;28;20218;-82
2021/12/26 08:08:10;;;;;;;17.60;11.03;;;;;;;;;;5030139;28;20203;-82
2021/12/26 08:10:37;;;;;;;16.70;10.90;;;;;;;;;;5032962;28;20214;-81
2021/12/26 08:13:04;;;;;;;16.87;10.40;;;;;;;;;;5030617;28;20215;-80
2021/12/26 08:15:31;;;;;;;14.27;10.20;;;;;;;;;;5032755;28;20686;-81
2021/12/26 08:17:58;;;;;;;15.83;10.70;;;;;;;;;;5034608;28;20203;-82
2021/12/26 08:20:26;;;;;;;16.97;10.23;;;;;;;;;;5040205;28;20254;-81
2021/12/26 08:22:54;;;;;;;16.10;10.33;;;;;;;;;;5040603;28;20597;-80
2021/12/26 08:25:21;;;;;;;16.33;10.57;;;;;;;;;;5032541;28;20230;-81
2021/12/26 08:27:48;;;;;;;15.60;10.27;;;;;;;;;;5021610;28;20224;-80
2021/12/26 08:30:15;;;;;;;17.40;10.43;;;;;;;;;;5014673;28;20243;-81
2021/12/26 08:32:43;;;;;;;18.33;11.10;;;;;;;;;;5013277;28;20203;-82
2021/12/26 08:35:10;;;;;;;15.20;10.10;;;;;;;;;;5013073;28;20235;-82
2021/12/26 08:37:40;;;;;;;16.50;10.37;;;;;;;;;;5013130;28;20221;-82
2021/12/26 08:40:08;;;;;;;16.13;10.20;;;;;;;;;;5012910;28;20239;-83
2021/12/26 08:42:35;;;;;;;15.83;10.17;;;;;;;;;;5015531;28;20238;-83
2021/12/26 08:45:02;;;;;;;18.80;12.27;;;;;;;;;;5015008;28;20238;-84
2021/12/26 08:47:29;;;;;;;15.23;10.63;;;;;;;;;;5014492;28;20207;-84
2021/12/26 08:49:56;;;;;;;18.13;11.10;;;;;;;;;;5014278;28;20243;-83
2021/12/26 08:52:23;;;;;;;15.43;10.47;;;;;;;;;;5017072;28;20204;-83
2021/12/26 08:54:52;;;;;;;16.67;11.43;;;;;;;;;;5016260;28;20260;-83
2021/12/26 08:57:19;;;;;;;17.70;11.40;;;;;;;;;;5016747;28;20215;-82
2021/12/26 08:59:46;;;;;;;15.13;10.33;;;;;;;;;;5022215;28;20292;-83
2021/12/26 09:02:13;;;;;;;16.77;11.23;;;;;;;;;;5038093;28;20230;-83
2021/12/26 09:04:41;;;;;;;17.37;10.73;;;;;;;;;;5036471;28;20245;-83
2021/12/26 09:07:08;;;;;;;16.53;10.23;;;;;;;;;;5039490;28;20217;-83
2021/12/26 09:09:36;;;;;;;17.67;10.90;;;;;;;;;;5039798;28;20690;-83
2021/12/26 09:12:05;;;;;;;20.73;10.70;;;;;;;;;;5036768;28;20202;-82
2021/12/26 09:14:32;;;;;;;20.87;10.97;;;;;;;;;;5024708;28;20289;-85
2021/12/26 09:16:59;;;;;;;18.33;10.50;;;;;;;;;;5031924;28;20199;-83
2021/12/26 09:19:28;;;;;;;15.33;10.20;;;;;;;;;;5031933;28;20234;-84
2021/12/26 09:21:55;;;;;;;18.00;10.77;;;;;;;;;;5032605;28;20226;-83
2021/12/26 09:24:23;;;;;;;21.27;10.40;;;;;;;;;;5032686;28;20253;-84
2021/12/26 09:26:50;;;;;;;17.60;11.10;;;;;;;;;;5019341;28;20207;-84
2021/12/26 09:29:18;;;;;;;18.07;10.27;;;;;;;;;;5012900;28;20305;-84
2021/12/26 09:31:46;;;;;;;15.77;10.97;;;;;;;;;;5017507;28;20719;-85
2021/12/26 09:34:13;;;;;;;16.10;10.13;;;;;;;;;;5031540;28;20234;-85
2021/12/26 09:36:40;;;;;;;17.50;10.67;;;;;;;;;;5032522;28;20537;-84
2021/12/26 09:39:07;;;;;;;17.77;11.47;;;;;;;;;;5030925;28;20246;-85
2021/12/26 09:41:34;;;;;;;17.60;10.57;;;;;;;;;;5038092;28;20222;-84
2021/12/26 09:44:01;;;;;;;15.43;10.20;;;;;;;;;;5032126;28;20238;-85
2021/12/26 09:46:30;;;;;;;17.70;10.33;;;;;;;;;;5031686;28;20581;-84
2021/12/26 09:48:59;;;;;;;15.70;10.37;;;;;;;;;;5034021;28;20242;-85
2021/12/26 09:51:27;;;;;;;15.53;10.33;;;;;;;;;;5035639;28;20211;-84
2021/12/26 09:53:54;;;;;;;14.93;10.37;;;;;;;;;;5041311;28;20234;-85
2021/12/26 09:56:21;;;;;;;13.97;9.23;;;;;;;;;;5038196;28;20211;-84
2021/12/26 09:58:53;;;;;;;14.90;9.80;;;;;;;;;;5038838;28;20233;-84
2021/12/26 10:01:27;;;;;;;14.83;10.10;;;;;;;;;;5023473;28;20199;-85
2021/12/26 10:03:56;;;;;;;13.17;9.13;;;;;;;;;;5018280;28;20710;-84
2021/12/26 10:06:23;;;;;;;14.47;9.90;;;;;;;;;;5016372;28;20210;-84
2021/12/26 10:08:55;;;;;;;13.43;9.43;;;;;;;;;;5019800;28;20227;-85
2021/12/26 10:11:23;;;;;;;15.10;9.43;;;;;;;;;;5034928;28;20210;-85
2021/12/26 10:13:51;;;;;;;14.37;8.57;;;;;;;;;;5030440;28;20238;-85
2021/12/26 10:16:19;;;;;;;17.10;9.30;;;;;;;;;;5035756;28;20586;-85
2021/12/26 10:18:47;;;;;;;16.67;10.30;;;;;;;;;;5034982;28;20246;-85
2021/12/26 10:21:26;;;;;;;17.20;9.67;;;;;;;;;;5036347;28;20210;-82
2021/12/26 10:23:53;;;;;;;9.50;6.60;;;;;;;;;;5035551;28;20264;-83
2021/12/26 10:26:21;;;;;;;18.43;10.20;;;;;;;;;;5009737;23;1166857;-85
2021/12/26 10:29:11;;;;;;;14.97;9.57;;;;;;;;;;5040980;28;20230;-85
2021/12/26 10:31:39;;;;;;;16.33;9.50;;;;;;;;;;5054997;28;20214;-84
2021/12/26 10:34:06;;;;;;;12.97;8.47;;;;;;;;;;5045034;28;20280;-85
2021/12/26 10:36:42;;;;;;;14.37;8.90;;;;;;;;;;5038195;28;20726;-82
2021/12/26 10:39:12;;;;;;;12.93;9.27;;;;;;;;;;5036785;28;20246;-82
2021/12/26 10:41:43;;;;;;;13.37;9.47;;;;;;;;;;5036939;28;20230;-80
2021/12/26 10:44:20;;;;;;;13.23;9.10;;;;;;;;;;5036324;28;20756;-82
2021/12/26 10:46:48;;;;;;;13.30;9.57;;;;;;;;;;5036225;28;20234;-82
2021/12/26 10:49:25;;;;;;;14.70;9.67;;;;;;;;;;5035975;28;20615;-82
2021/12/26 10:51:53;;;;;;;14.97;9.73;;;;;;;;;;5038518;28;20205;-82
2021/12/26 10:54:25;;;;;;;16.80;9.17;;;;;;;;;;5034496;28;20667;-83
2021/12/26 10:57:12;;;;;;;18.20;8.90;;;;;;;;;;5023027;28;20234;-83
2021/12/26 10:59:40;;;;;;;17.03;9.57;;;;;;;;;;5036054;28;20277;-83
2021/12/26 11:02:07;;;;;;;21.03;10.40;;;;;;;;;;5036607;28;20230;-85
2021/12/26 11:04:35;;;;;;;14.50;9.33;;;;;;;;;;5038382;28;20286;-83
2021/12/26 11:07:05;;;;;;;15.47;9.93;;;;;;;;;;5038566;28;20227;-83
2021/12/26 11:09:32;;;;;;;13.37;8.60;;;;;;;;;;5038334;28;20235;-82
2021/12/26 11:12:00;;;;;;;12.20;8.33;;;;;;;;;;5037001;28;20206;-82
2021/12/26 11:14:27;;;;;;;16.53;10.40;;;;;;;;;;5034621;28;20353;-82
2021/12/26 11:16:55;;;;;;;17.80;9.63;;;;;;;;;;5034904;28;20226;-81
2021/12/26 11:19:41;;;;;;;16.87;9.87;;;;;;;;;;5033817;28;20441;-82
2021/12/26 11:22:09;;;;;;;16.23;9.90;;;;;;;;;;5016314;28;20235;-83
2021/12/26 11:24:36;;;;;;;14.83;9.23;;;;;;;;;;5016722;28;20236;-84
2021/12/26 11:27:04;;;;;;;12.33;8.63;;;;;;;;;;5032776;28;20234;-82
2021/12/26 11:29:32;;;;;;;14.70;9.53;;;;;;;;;;5033716;28;20235;-83
2021/12/26 11:31:59;;;;;;;15.77;9.57;;;;;;;;;;5036768;28;20191;-85
2021/12/26 11:34:27;;;;;;;13.57;8.33;;;;;;;;;;5036993;28;20252;-84
2021/12/26 11:36:54;;;;;;;14.90;10.10;;;;;;;;;;5031080;28;20306;-84
2021/12/26 11:39:24;;;;;;;17.03;9.50;;;;;;;;;;5035881;28;20637;-84
2021/12/26 11:41:56;;;;;;;12.80;9.00;;;;;;;;;;5036058;28;20207;-81
2021/12/26 11:44:46;;;;;;;13.77;8.80;;;;;;;;;;5037012;28;20234;-83
2021/12/26 11:47:24;;;;;;;11.47;8.40;;;;;;;;;;5035824;28;20234;-85
2021/12/26 11:50:04;;;;;;;14.20;8.37;;;;;;;;;;5035609;28;20231;-83
2021/12/26 11:52:38;;;;;;;13.90;8.13;;;;;;;;;;5034852;28;20187;-83
2021/12/26 11:55:17;;;;;;;13.73;8.47;;;;;;;;;;5034252;28;20257;-83
2021/12/26 11:57:59;;;;;;;12.43;8.23;;;;;;;;;;5036636;28;20200;-83
2021/12/26 12:00:27;;;;;;;14.53;8.80;;;;;;;;;;5036436;28;20226;-84
2021/12/26 12:02:55;;;;;;;11.80;8.60;;;;;;;;;;5035434;28;20233;-81
2021/12/26 12:05:24;;;;;;;11.93;8.30;;;;;;;;;;5034557;28;20239;-83
2021/12/26 12:07:55;;;;;;;13.97;8.80;;;;;;;;;;5035459;28;20207;-83
2021/12/26 12:10:33;;;;;;;16.20;9.03;;;;;;;;;;5033572;28;20595;-83
2021/12/26 12:13:00;;;;;;;12.43;8.57;;;;;;;;;;5034590;28;20199;-83
2021/12/26 12:15:41;;;;;;;11.57;8.47;;;;;;;;;;5033110;28;20253;-83
2021/12/26 12:18:10;;;;;;;14.67;8.10;;;;;;;;;;5049068;28;20210;-82
2021/12/26 12:20:37;;;;;;;14.67;8.87;;;;;;;;;;5053863;28;20200;-81
2021/12/26 12:23:28;;;;;;;13.70;8.47;;;;;;;;;;5044820;28;20218;-83
2021/12/26 12:25:56;;;;;;;14.10;8.50;;;;;;;;;;5040129;28;20230;-82
2021/12/26 12:28:29;;;;;;;10.97;8.87;;;;;;;;;;5036518;28;20238;-82
2021/12/26 12:30:58;;;;;;;14.10;7.97;;;;;;;;;;5035424;28;20203;-79
2021/12/26 12:33:28;;;;;;;11.63;8.33;;;;;;;;;;5034223;28;20241;-82
2021/12/26 12:36:05;;;;;;;12.37;7.97;;;;;;;;;;5034197;28;20222;-82
2021/12/26 12:38:34;;;;;;;12.90;8.33;;;;;;;;;;5033804;28;20276;-82
2021/12/26 12:41:04;;;;;;;15.80;8.87;;;;;;;;;;5034429;28;20279;-80
2021/12/26 12:43:41;;;;;;;9.80;7.10;;;;;;;;;;5038841;28;20242;-81
2021/12/26 12:46:09;;;;;;;13.10;8.57;;;;;;;;;;5034911;28;20230;-82
2021/12/26 12:48:47;;;;;;;14.37;8.40;;;;;;;;;;5033397;28;20238;-82
2021/12/26 12:51:29;;;;;;;16.53;8.47;;;;;;;;;;5034206;28;20215;-81
2021/12/26 12:53:57;;;;;;;16.40;8.77;;;;;;;;;;5035024;28;20611;-82
2021/12/26 12:56:41;;;;;;;12.77;8.47;;;;;;;;;;5035232;28;20234;-81
2021/12/26 12:59:27;;;;;;;12.60;8.67;;;;;;;;;;5033727;28;20230;-80
2021/12/26 13:01:55;;;;;;;13.97;8.40;;;;;;;;;;5033816;28;20222;-80
2021/12/26 13:04:24;;;;;;;14.50;8.20;;;;;;;;;;5032542;28;20243;-81
2021/12/26 13:06:51;;;;;;;17.60;8.90;;;;;;;;;;5033909;28;20739;-82
2021/12/26 13:09:18;;;;;;;14.00;7.93;;;;;;;;;;5033060;28;20234;-82
2021/12/26 13:11:48;;;;;;;12.87;8.43;;;;;;;;;;5033292;28;20213;-81
2021/12/26 13:14:34;;;;;;;17.67;8.67;;;;;;;;;;5033978;28;20238;-81
2021/12/26 13:17:01;;;;;;;18.30;8.87;;;;;;;;;;5034083;28;20223;-82
2021/12/26 13:19:28;;;;;;;13.33;8.77;;;;;;;;;;5039835;28;20238;-81
2021/12/26 13:21:56;;;;;;;13.60;8.33;;;;;;;;;;5035015;28;20210;-82
2021/12/26 13:24:28;;;;;;;15.73;9.20;;;;;;;;;;5032342;28;20313;-82
2021/12/26 13:26:56;;;;;;;17.40;10.00;;;;;;;;;;5032927;28;20244;-82
2021/12/26 13:29:23;;;;;;;15.07;8.53;;;;;;;;;;5032376;28;20261;-82
2021/12/26 13:31:51;;;;;;;13.87;8.73;;;;;;;;;;5032872;28;20209;-80
2021/12/26 13:34:18;;;;;;;19.13;10.20;;;;;;;;;;5032616;28;20237;-82
2021/12/26 13:36:45;;;;;;;14.37;8.43;;;;;;;;;;5032762;28;20229;-82
2021/12/26 13:39:18;;;;;;;13.43;9.13;;;;;;;;;;5033003;28;20237;-82
2021/12/26 13:41:45;;;;;;;16.77;9.97;;;;;;;;;;5034145;28;20206;-82
2021/12/26 13:44:14;;;;;;;16.53;9.57;;;;;;;;;;5031473;28;20239;-82
2021/12/26 13:46:41;;;;;;;19.23;9.20;;;;;;;;;;5033179;28;20227;-82
2021/12/26 13:49:11;;;;;;;14.63;9.50;;;;;;;;;;5032436;28;20234;-82
2021/12/26 13:51:39;;;;;;;15.37;9.10;;;;;;;;;;5032497;28;20204;-81
2021/12/26 13:54:07;;;;;;;17.33;10.43;;;;;;;;;;5032995;28;20254;-81
2021/12/26 13:56:45;;;;;;;13.70;9.93;;;;;;;;;;5032942;28;20662;-82
2021/12/26 14:02:07;;;;;;;16.80;9.97;;;;;;;;;;5089815;28;20546;-81
2021/12/26 14:04:34;;;;;;;17.53;9.93;;;;;;;;;;5064106;28;20246;-81
2021/12/26 14:07:07;;;;;;;17.63;9.20;;;;;;;;;;5051154;28;20237;-82
2021/12/26 14:09:37;;;;;;;20.00;9.40;;;;;;;;;;5063500;28;20361;-82
2021/12/26 14:12:04;;;;;;;18.70;10.33;;;;;;;;;;5072736;28;20263;-82
2021/12/26 14:14:36;;;;;;;13.43;8.77;;;;;;;;;;5072734;28;20297;-82
2021/12/26 14:17:08;;;;;;;16.67;10.40;;;;;;;;;;5079776;28;20247;-81
2021/12/26 14:19:35;;;;;;;16.40;10.27;;;;;;;;;;5081739;28;20743;-81
2021/12/26 14:22:02;;;;;;;18.20;10.37;;;;;;;;;;5081570;28;20236;-81
2021/12/26 14:24:31;;;;;;;18.70;9.57;;;;;;;;;;5076451;28;20236;-82
2021/12/26 14:26:58;;;;;;;14.70;9.23;;;;;;;;;;5075555;28;20225;-81
2021/12/26 14:29:26;;;;;;;15.93;9.80;;;;;;;;;;5072813;28;20247;-81
2021/12/26 14:31:54;;;;;;;18.30;10.13;;;;;;;;;;5072614;28;20215;-80
2021/12/26 14:34:25;;;;;;;16.17;9.83;;;;;;;;;;5071806;28;20229;-82
2021/12/26 14:36:53;;;;;;;16.03;10.03;;;;;;;;;;5071980;28;20263;-80